
<gpx xmlns="http://www.topografix.com/GPX/1/1" xmlns:gpxx="http://www.garmin.com/xmlschemas/GpxExtensions/v3" xmlns:xsi="http://www.w3.org/2001/XMLSchema-instance" version="1.1" creator="Adze - https://getadze.com/" xsi:schemaLocation="http://www.topografix.com/GPX/1/1 http://www.topografix.com/GPX/1/1/gpx.xsd http://www.garmin.com/xmlschemas/GpxExtensions/v3 http://www.garmin.com/xmlschemas/GpxExtensionsv3.xsd">
    <metadata>
        <name>Untitled Document</name>
        <time>2018-03-05T02:51:59.018Z</time>
    </metadata>
    <trk>
        <name>November 2004</name>
        <extensions>
            <gpxx:TrackExtension>
                <gpxx:DisplayColor>DarkMagenta</gpxx:DisplayColor>
            </gpxx:TrackExtension>
        </extensions>
        <trkseg>
            <trkpt lon="100.883203" lat="12.761049">
                <ele>9.750610</ele>
                <time>2004-11-27T06:34:02Z</time>
            </trkpt>
            <trkpt lon="100.883374" lat="12.761006">
                <ele>13.115112</ele>
                <time>2004-11-27T06:35:34Z</time>
            </trkpt>
            <trkpt lon="100.883374" lat="12.760942">
                <ele>11.192505</ele>
                <time>2004-11-27T06:46:48Z</time>
            </trkpt>
            <trkpt lon="100.883439" lat="12.760899">
                <ele>10.231201</ele>
                <time>2004-11-27T06:46:52Z</time>
            </trkpt>
            <trkpt lon="100.883696" lat="12.760684">
                <ele>8.789185</ele>
                <time>2004-11-27T06:47:02Z</time>
            </trkpt>
            <trkpt lon="100.883739" lat="12.760406">
                <ele>9.750610</ele>
                <time>2004-11-27T06:47:15Z</time>
            </trkpt>
            <trkpt lon="100.883760" lat="12.760427">
                <ele>9.269897</ele>
                <time>2004-11-27T06:48:06Z</time>
            </trkpt>
            <trkpt lon="100.883739" lat="12.760277">
                <ele>8.308594</ele>
                <time>2004-11-27T06:48:14Z</time>
            </trkpt>
            <trkpt lon="100.883245" lat="12.760041">
                <ele>7.827881</ele>
                <time>2004-11-27T06:48:29Z</time>
            </trkpt>
            <trkpt lon="100.883117" lat="12.759976">
                <ele>8.789185</ele>
                <time>2004-11-27T06:48:39Z</time>
            </trkpt>
            <trkpt lon="100.883031" lat="12.759955">
                <ele>9.269897</ele>
                <time>2004-11-27T06:48:53Z</time>
            </trkpt>
            <trkpt lon="100.883052" lat="12.759976">
                <ele>9.269897</ele>
                <time>2004-11-27T06:49:00Z</time>
            </trkpt>
            <trkpt lon="100.883353" lat="12.760105">
                <ele>10.231201</ele>
                <time>2004-11-27T06:49:14Z</time>
            </trkpt>
            <trkpt lon="100.883653" lat="12.760255">
                <ele>12.153809</ele>
                <time>2004-11-27T06:49:30Z</time>
            </trkpt>
            <trkpt lon="100.883632" lat="12.760234">
                <ele>15.999023</ele>
                <time>2004-11-27T06:49:46Z</time>
            </trkpt>
            <trkpt lon="100.883610" lat="12.760212">
                <ele>15.518433</ele>
                <time>2004-11-27T06:49:49Z</time>
            </trkpt>
            <trkpt lon="100.883224" lat="12.760019">
                <ele>15.037720</ele>
                <time>2004-11-27T06:50:04Z</time>
            </trkpt>
            <trkpt lon="100.882730" lat="12.759826">
                <ele>14.557007</ele>
                <time>2004-11-27T06:50:17Z</time>
            </trkpt>
            <trkpt lon="100.881872" lat="12.759848">
                <ele>8.789185</ele>
                <time>2004-11-27T06:50:34Z</time>
            </trkpt>
            <trkpt lon="100.881679" lat="12.759869">
                <ele>7.827881</ele>
                <time>2004-11-27T06:50:38Z</time>
            </trkpt>
            <trkpt lon="100.881572" lat="12.759740">
                <ele>7.827881</ele>
                <time>2004-11-27T06:50:42Z</time>
            </trkpt>
            <trkpt lon="100.881464" lat="12.759376">
                <ele>8.789185</ele>
                <time>2004-11-27T06:50:54Z</time>
            </trkpt>
            <trkpt lon="100.881572" lat="12.759290">
                <ele>7.827881</ele>
                <time>2004-11-27T06:50:59Z</time>
            </trkpt>
            <trkpt lon="100.882044" lat="12.758818">
                <ele>7.827881</ele>
                <time>2004-11-27T06:51:14Z</time>
            </trkpt>
            <trkpt lon="100.882602" lat="12.758367">
                <ele>9.269897</ele>
                <time>2004-11-27T06:51:32Z</time>
            </trkpt>
            <trkpt lon="100.883095" lat="12.758238">
                <ele>9.269897</ele>
                <time>2004-11-27T06:51:46Z</time>
            </trkpt>
            <trkpt lon="100.883889" lat="12.758195">
                <ele>9.269897</ele>
                <time>2004-11-27T06:52:06Z</time>
            </trkpt>
            <trkpt lon="100.884447" lat="12.758002">
                <ele>11.192505</ele>
                <time>2004-11-27T06:52:21Z</time>
            </trkpt>
            <trkpt lon="100.884941" lat="12.757916">
                <ele>11.673218</ele>
                <time>2004-11-27T06:52:34Z</time>
            </trkpt>
            <trkpt lon="100.885692" lat="12.758389">
                <ele>10.231201</ele>
                <time>2004-11-27T06:52:52Z</time>
            </trkpt>
            <trkpt lon="100.886400" lat="12.758861">
                <ele>9.269897</ele>
                <time>2004-11-27T06:53:08Z</time>
            </trkpt>
            <trkpt lon="100.886915" lat="12.758968">
                <ele>9.269897</ele>
                <time>2004-11-27T06:53:18Z</time>
            </trkpt>
            <trkpt lon="100.887001" lat="12.758989">
                <ele>9.269897</ele>
                <time>2004-11-27T06:53:20Z</time>
            </trkpt>
            <trkpt lon="100.887237" lat="12.759161">
                <ele>9.750610</ele>
                <time>2004-11-27T06:53:30Z</time>
            </trkpt>
            <trkpt lon="100.887258" lat="12.759161">
                <ele>10.231201</ele>
                <time>2004-11-27T06:53:49Z</time>
            </trkpt>
            <trkpt lon="100.887237" lat="12.759118">
                <ele>11.673218</ele>
                <time>2004-11-27T06:54:07Z</time>
            </trkpt>
            <trkpt lon="100.887108" lat="12.759032">
                <ele>14.076416</ele>
                <time>2004-11-27T06:54:23Z</time>
            </trkpt>
            <trkpt lon="100.886786" lat="12.758946">
                <ele>13.595825</ele>
                <time>2004-11-27T06:54:37Z</time>
            </trkpt>
            <trkpt lon="100.886507" lat="12.758904">
                <ele>11.673218</ele>
                <time>2004-11-27T06:54:45Z</time>
            </trkpt>
            <trkpt lon="100.886056" lat="12.758603">
                <ele>12.153809</ele>
                <time>2004-11-27T06:54:58Z</time>
            </trkpt>
            <trkpt lon="100.885434" lat="12.758195">
                <ele>13.115112</ele>
                <time>2004-11-27T06:55:17Z</time>
            </trkpt>
            <trkpt lon="100.885284" lat="12.758067">
                <ele>13.115112</ele>
                <time>2004-11-27T06:55:23Z</time>
            </trkpt>
            <trkpt lon="100.885434" lat="12.757573">
                <ele>14.076416</ele>
                <time>2004-11-27T06:55:36Z</time>
            </trkpt>
            <trkpt lon="100.885627" lat="12.756650">
                <ele>13.115112</ele>
                <time>2004-11-27T06:55:55Z</time>
            </trkpt>
            <trkpt lon="100.885713" lat="12.755899">
                <ele>11.192505</ele>
                <time>2004-11-27T06:56:09Z</time>
            </trkpt>
            <trkpt lon="100.886014" lat="12.755706">
                <ele>10.711792</ele>
                <time>2004-11-27T06:56:17Z</time>
            </trkpt>
            <trkpt lon="100.886893" lat="12.755556">
                <ele>8.789185</ele>
                <time>2004-11-27T06:56:34Z</time>
            </trkpt>
            <trkpt lon="100.887837" lat="12.755234">
                <ele>8.308594</ele>
                <time>2004-11-27T06:56:53Z</time>
            </trkpt>
            <trkpt lon="100.888696" lat="12.755406">
                <ele>7.347168</ele>
                <time>2004-11-27T06:57:09Z</time>
            </trkpt>
            <trkpt lon="100.889704" lat="12.755814">
                <ele>7.347168</ele>
                <time>2004-11-27T06:57:28Z</time>
            </trkpt>
            <trkpt lon="100.890219" lat="12.756028">
                <ele>7.827881</ele>
                <time>2004-11-27T06:57:38Z</time>
            </trkpt>
            <trkpt lon="100.891078" lat="12.756350">
                <ele>7.347168</ele>
                <time>2004-11-27T06:57:55Z</time>
            </trkpt>
            <trkpt lon="100.891528" lat="12.756543">
                <ele>7.827881</ele>
                <time>2004-11-27T06:58:05Z</time>
            </trkpt>
            <trkpt lon="100.891850" lat="12.756693">
                <ele>8.308594</ele>
                <time>2004-11-27T06:58:12Z</time>
            </trkpt>
            <trkpt lon="100.892086" lat="12.756565">
                <ele>9.269897</ele>
                <time>2004-11-27T06:58:20Z</time>
            </trkpt>
            <trkpt lon="100.892451" lat="12.755749">
                <ele>9.269897</ele>
                <time>2004-11-27T06:58:38Z</time>
            </trkpt>
            <trkpt lon="100.892515" lat="12.755599">
                <ele>8.789185</ele>
                <time>2004-11-27T06:58:41Z</time>
            </trkpt>
            <trkpt lon="100.892880" lat="12.754805">
                <ele>7.827881</ele>
                <time>2004-11-27T06:58:58Z</time>
            </trkpt>
            <trkpt lon="100.893116" lat="12.754161">
                <ele>8.789185</ele>
                <time>2004-11-27T06:59:12Z</time>
            </trkpt>
            <trkpt lon="100.893331" lat="12.753754">
                <ele>8.789185</ele>
                <time>2004-11-27T06:59:25Z</time>
            </trkpt>
            <trkpt lon="100.893502" lat="12.753410">
                <ele>8.789185</ele>
                <time>2004-11-27T06:59:39Z</time>
            </trkpt>
            <trkpt lon="100.893652" lat="12.753024">
                <ele>7.827881</ele>
                <time>2004-11-27T06:59:54Z</time>
            </trkpt>
            <trkpt lon="100.893781" lat="12.752831">
                <ele>8.308594</ele>
                <time>2004-11-27T07:00:07Z</time>
            </trkpt>
            <trkpt lon="100.893824" lat="12.752745">
                <ele>7.827881</ele>
                <time>2004-11-27T07:00:19Z</time>
            </trkpt>
            <trkpt lon="100.893846" lat="12.752724">
                <ele>7.827881</ele>
                <time>2004-11-27T07:00:29Z</time>
            </trkpt>
            <trkpt lon="100.893888" lat="12.752659">
                <ele>6.866455</ele>
                <time>2004-11-27T07:00:35Z</time>
            </trkpt>
            <trkpt lon="100.893910" lat="12.752659">
                <ele>6.866455</ele>
                <time>2004-11-27T07:00:37Z</time>
            </trkpt>
            <trkpt lon="100.893931" lat="12.752659">
                <ele>7.347168</ele>
                <time>2004-11-27T07:00:50Z</time>
            </trkpt>
            <trkpt lon="100.893953" lat="12.752659">
                <ele>8.789185</ele>
                <time>2004-11-27T07:01:23Z</time>
            </trkpt>
            <trkpt lon="100.893996" lat="12.752681">
                <ele>9.269897</ele>
                <time>2004-11-27T07:01:28Z</time>
            </trkpt>
            <trkpt lon="100.894017" lat="12.752702">
                <ele>9.269897</ele>
                <time>2004-11-27T07:01:31Z</time>
            </trkpt>
            <trkpt lon="100.894361" lat="12.752810">
                <ele>9.269897</ele>
                <time>2004-11-27T07:01:44Z</time>
            </trkpt>
            <trkpt lon="100.894682" lat="12.752960">
                <ele>8.308594</ele>
                <time>2004-11-27T07:01:53Z</time>
            </trkpt>
            <trkpt lon="100.895133" lat="12.753110">
                <ele>8.789185</ele>
                <time>2004-11-27T07:02:05Z</time>
            </trkpt>
            <trkpt lon="100.895369" lat="12.753046">
                <ele>9.269897</ele>
                <time>2004-11-27T07:02:15Z</time>
            </trkpt>
            <trkpt lon="100.895348" lat="12.753067">
                <ele>8.789185</ele>
                <time>2004-11-27T07:03:24Z</time>
            </trkpt>
            <trkpt lon="100.895605" lat="12.752810">
                <ele>9.269897</ele>
                <time>2004-11-27T07:03:35Z</time>
            </trkpt>
            <trkpt lon="100.895734" lat="12.752724">
                <ele>9.269897</ele>
                <time>2004-11-27T07:03:38Z</time>
            </trkpt>
            <trkpt lon="100.895991" lat="12.752681">
                <ele>8.789185</ele>
                <time>2004-11-27T07:03:43Z</time>
            </trkpt>
            <trkpt lon="100.896442" lat="12.752638">
                <ele>9.269897</ele>
                <time>2004-11-27T07:03:52Z</time>
            </trkpt>
            <trkpt lon="100.896978" lat="12.752702">
                <ele>10.231201</ele>
                <time>2004-11-27T07:04:07Z</time>
            </trkpt>
            <trkpt lon="100.897193" lat="12.752745">
                <ele>10.231201</ele>
                <time>2004-11-27T07:04:12Z</time>
            </trkpt>
            <trkpt lon="100.897622" lat="12.752702">
                <ele>10.711792</ele>
                <time>2004-11-27T07:04:21Z</time>
            </trkpt>
            <trkpt lon="100.897901" lat="12.752831">
                <ele>10.711792</ele>
                <time>2004-11-27T07:04:28Z</time>
            </trkpt>
            <trkpt lon="100.898287" lat="12.753153">
                <ele>11.192505</ele>
                <time>2004-11-27T07:04:40Z</time>
            </trkpt>
            <trkpt lon="100.898373" lat="12.753389">
                <ele>10.711792</ele>
                <time>2004-11-27T07:04:45Z</time>
            </trkpt>
            <trkpt lon="100.898395" lat="12.753518">
                <ele>11.192505</ele>
                <time>2004-11-27T07:04:48Z</time>
            </trkpt>
            <trkpt lon="100.898716" lat="12.754140">
                <ele>12.153809</ele>
                <time>2004-11-27T07:05:04Z</time>
            </trkpt>
            <trkpt lon="100.898931" lat="12.754440">
                <ele>11.673218</ele>
                <time>2004-11-27T07:05:15Z</time>
            </trkpt>
            <trkpt lon="100.898995" lat="12.754419">
                <ele>11.673218</ele>
                <time>2004-11-27T07:05:24Z</time>
            </trkpt>
            <trkpt lon="100.899210" lat="12.754097">
                <ele>12.153809</ele>
                <time>2004-11-27T07:05:37Z</time>
            </trkpt>
            <trkpt lon="100.899746" lat="12.753518">
                <ele>13.595825</ele>
                <time>2004-11-27T07:05:54Z</time>
            </trkpt>
            <trkpt lon="100.900004" lat="12.753325">
                <ele>14.076416</ele>
                <time>2004-11-27T07:06:01Z</time>
            </trkpt>
            <trkpt lon="100.900111" lat="12.753239">
                <ele>14.076416</ele>
                <time>2004-11-27T07:06:04Z</time>
            </trkpt>
            <trkpt lon="100.900626" lat="12.752874">
                <ele>16.479736</ele>
                <time>2004-11-27T07:06:21Z</time>
            </trkpt>
            <trkpt lon="100.900626" lat="12.752788">
                <ele>16.479736</ele>
                <time>2004-11-27T07:06:33Z</time>
            </trkpt>
            <trkpt lon="100.900626" lat="12.752788">
                <ele>16.479736</ele>
                <time>2004-11-27T07:06:34Z</time>
            </trkpt>
            <trkpt lon="100.900691" lat="12.752681">
                <ele>15.518433</ele>
                <time>2004-11-27T07:06:42Z</time>
            </trkpt>
            <trkpt lon="100.900691" lat="12.752573">
                <ele>15.999023</ele>
                <time>2004-11-27T07:06:55Z</time>
            </trkpt>
            <trkpt lon="100.900691" lat="12.752552">
                <ele>16.479736</ele>
                <time>2004-11-27T07:06:58Z</time>
            </trkpt>
            <trkpt lon="100.900733" lat="12.752380">
                <ele>16.479736</ele>
                <time>2004-11-27T07:07:06Z</time>
            </trkpt>
            <trkpt lon="100.900347" lat="12.751544">
                <ele>15.999023</ele>
                <time>2004-11-27T07:07:25Z</time>
            </trkpt>
            <trkpt lon="100.900261" lat="12.751179">
                <ele>15.518433</ele>
                <time>2004-11-27T07:07:35Z</time>
            </trkpt>
            <trkpt lon="100.900948" lat="12.750857">
                <ele>15.518433</ele>
                <time>2004-11-27T07:07:55Z</time>
            </trkpt>
            <trkpt lon="100.901077" lat="12.750793">
                <ele>15.999023</ele>
                <time>2004-11-27T07:07:58Z</time>
            </trkpt>
            <trkpt lon="100.901270" lat="12.750707">
                <ele>15.999023</ele>
                <time>2004-11-27T07:08:03Z</time>
            </trkpt>
            <trkpt lon="100.901699" lat="12.750192">
                <ele>16.479736</ele>
                <time>2004-11-27T07:08:18Z</time>
            </trkpt>
            <trkpt lon="100.901806" lat="12.750084">
                <ele>16.960449</ele>
                <time>2004-11-27T07:08:21Z</time>
            </trkpt>
            <trkpt lon="100.901892" lat="12.750020">
                <ele>17.441162</ele>
                <time>2004-11-27T07:08:23Z</time>
            </trkpt>
            <trkpt lon="100.902300" lat="12.749870">
                <ele>16.479736</ele>
                <time>2004-11-27T07:08:32Z</time>
            </trkpt>
            <trkpt lon="100.902600" lat="12.749655">
                <ele>17.441162</ele>
                <time>2004-11-27T07:08:42Z</time>
            </trkpt>
            <trkpt lon="100.902600" lat="12.749612">
                <ele>17.441162</ele>
                <time>2004-11-27T07:08:45Z</time>
            </trkpt>
            <trkpt lon="100.902536" lat="12.749698">
                <ele>15.518433</ele>
                <time>2004-11-27T07:08:52Z</time>
            </trkpt>
            <trkpt lon="100.902665" lat="12.749827">
                <ele>15.518433</ele>
                <time>2004-11-27T07:09:00Z</time>
            </trkpt>
            <trkpt lon="100.903265" lat="12.749956">
                <ele>18.402344</ele>
                <time>2004-11-27T07:09:18Z</time>
            </trkpt>
            <trkpt lon="100.903909" lat="12.750106">
                <ele>21.766968</ele>
                <time>2004-11-27T07:09:37Z</time>
            </trkpt>
            <trkpt lon="100.904489" lat="12.750235">
                <ele>24.170288</ele>
                <time>2004-11-27T07:09:53Z</time>
            </trkpt>
            <trkpt lon="100.905218" lat="12.750342">
                <ele>26.092896</ele>
                <time>2004-11-27T07:10:12Z</time>
            </trkpt>
            <trkpt lon="100.905433" lat="12.750406">
                <ele>25.131714</ele>
                <time>2004-11-27T07:10:23Z</time>
            </trkpt>
            <trkpt lon="100.905433" lat="12.750428">
                <ele>25.612305</ele>
                <time>2004-11-27T07:10:37Z</time>
            </trkpt>
            <trkpt lon="100.905454" lat="12.750535">
                <ele>25.612305</ele>
                <time>2004-11-27T07:10:42Z</time>
            </trkpt>
            <trkpt lon="100.905647" lat="12.751179">
                <ele>24.170288</ele>
                <time>2004-11-27T07:11:00Z</time>
            </trkpt>
            <trkpt lon="100.905690" lat="12.751243">
                <ele>25.612305</ele>
                <time>2004-11-27T07:11:09Z</time>
            </trkpt>
            <trkpt lon="100.905626" lat="12.751114">
                <ele>25.131714</ele>
                <time>2004-11-27T07:11:15Z</time>
            </trkpt>
            <trkpt lon="100.905433" lat="12.750449">
                <ele>26.573608</ele>
                <time>2004-11-27T07:11:32Z</time>
            </trkpt>
            <trkpt lon="100.905540" lat="12.750428">
                <ele>26.092896</ele>
                <time>2004-11-27T07:11:37Z</time>
            </trkpt>
            <trkpt lon="100.906162" lat="12.750535">
                <ele>26.573608</ele>
                <time>2004-11-27T07:11:56Z</time>
            </trkpt>
            <trkpt lon="100.906742" lat="12.750578">
                <ele>22.728271</ele>
                <time>2004-11-27T07:12:13Z</time>
            </trkpt>
            <trkpt lon="100.907300" lat="12.750621">
                <ele>23.208984</ele>
                <time>2004-11-27T07:12:30Z</time>
            </trkpt>
            <trkpt lon="100.907879" lat="12.750750">
                <ele>25.131714</ele>
                <time>2004-11-27T07:12:47Z</time>
            </trkpt>
            <trkpt lon="100.908265" lat="12.750878">
                <ele>26.573608</ele>
                <time>2004-11-27T07:12:59Z</time>
            </trkpt>
            <trkpt lon="100.908265" lat="12.750878">
                <ele>27.054321</ele>
                <time>2004-11-27T07:13:04Z</time>
            </trkpt>
            <trkpt lon="100.908351" lat="12.750750">
                <ele>28.976929</ele>
                <time>2004-11-27T07:13:12Z</time>
            </trkpt>
            <trkpt lon="100.908651" lat="12.750385">
                <ele>29.938110</ele>
                <time>2004-11-27T07:13:27Z</time>
            </trkpt>
            <trkpt lon="100.908887" lat="12.749720">
                <ele>32.341553</ele>
                <time>2004-11-27T07:13:46Z</time>
            </trkpt>
            <trkpt lon="100.908651" lat="12.749162">
                <ele>32.822266</ele>
                <time>2004-11-27T07:14:01Z</time>
            </trkpt>
            <trkpt lon="100.908351" lat="12.748711">
                <ele>32.822266</ele>
                <time>2004-11-27T07:14:13Z</time>
            </trkpt>
            <trkpt lon="100.908115" lat="12.748132">
                <ele>33.783447</ele>
                <time>2004-11-27T07:14:27Z</time>
            </trkpt>
            <trkpt lon="100.908072" lat="12.748003">
                <ele>34.264160</ele>
                <time>2004-11-27T07:14:30Z</time>
            </trkpt>
            <trkpt lon="100.908093" lat="12.747788">
                <ele>34.264160</ele>
                <time>2004-11-27T07:14:37Z</time>
            </trkpt>
            <trkpt lon="100.908372" lat="12.747660">
                <ele>34.264160</ele>
                <time>2004-11-27T07:14:49Z</time>
            </trkpt>
            <trkpt lon="100.908930" lat="12.747467">
                <ele>32.822266</ele>
                <time>2004-11-27T07:15:05Z</time>
            </trkpt>
            <trkpt lon="100.909617" lat="12.747059">
                <ele>31.380127</ele>
                <time>2004-11-27T07:15:25Z</time>
            </trkpt>
            <trkpt lon="100.910561" lat="12.746522">
                <ele>35.225464</ele>
                <time>2004-11-27T07:15:53Z</time>
            </trkpt>
            <trkpt lon="100.911355" lat="12.746437">
                <ele>39.070679</ele>
                <time>2004-11-27T07:16:13Z</time>
            </trkpt>
            <trkpt lon="100.912170" lat="12.746201">
                <ele>43.396606</ele>
                <time>2004-11-27T07:16:36Z</time>
            </trkpt>
            <trkpt lon="100.912986" lat="12.745707">
                <ele>43.396606</ele>
                <time>2004-11-27T07:17:02Z</time>
            </trkpt>
            <trkpt lon="100.913951" lat="12.745171">
                <ele>47.241821</ele>
                <time>2004-11-27T07:17:32Z</time>
            </trkpt>
            <trkpt lon="100.914102" lat="12.745149">
                <ele>47.241821</ele>
                <time>2004-11-27T07:17:37Z</time>
            </trkpt>
            <trkpt lon="100.914230" lat="12.745149">
                <ele>46.280640</ele>
                <time>2004-11-27T07:17:41Z</time>
            </trkpt>
            <trkpt lon="100.914874" lat="12.745020">
                <ele>47.241821</ele>
                <time>2004-11-27T07:17:59Z</time>
            </trkpt>
            <trkpt lon="100.915411" lat="12.744505">
                <ele>48.203369</ele>
                <time>2004-11-27T07:18:23Z</time>
            </trkpt>
            <trkpt lon="100.915711" lat="12.744226">
                <ele>52.529175</ele>
                <time>2004-11-27T07:18:39Z</time>
            </trkpt>
            <trkpt lon="100.916140" lat="12.743840">
                <ele>56.374512</ele>
                <time>2004-11-27T07:19:03Z</time>
            </trkpt>
            <trkpt lon="100.916462" lat="12.743411">
                <ele>64.065063</ele>
                <time>2004-11-27T07:19:29Z</time>
            </trkpt>
            <trkpt lon="100.916548" lat="12.743111">
                <ele>66.468262</ele>
                <time>2004-11-27T07:19:45Z</time>
            </trkpt>
            <trkpt lon="100.916591" lat="12.742746">
                <ele>69.352295</ele>
                <time>2004-11-27T07:20:03Z</time>
            </trkpt>
            <trkpt lon="100.916505" lat="12.742403">
                <ele>73.678223</ele>
                <time>2004-11-27T07:20:21Z</time>
            </trkpt>
            <trkpt lon="100.916162" lat="12.742016">
                <ele>75.120239</ele>
                <time>2004-11-27T07:20:37Z</time>
            </trkpt>
            <trkpt lon="100.915539" lat="12.741673">
                <ele>76.081421</ele>
                <time>2004-11-27T07:20:55Z</time>
            </trkpt>
            <trkpt lon="100.914681" lat="12.741609">
                <ele>75.120239</ele>
                <time>2004-11-27T07:21:13Z</time>
            </trkpt>
            <trkpt lon="100.914423" lat="12.741609">
                <ele>75.120239</ele>
                <time>2004-11-27T07:21:17Z</time>
            </trkpt>
            <trkpt lon="100.913780" lat="12.741609">
                <ele>75.600830</ele>
                <time>2004-11-27T07:21:26Z</time>
            </trkpt>
            <trkpt lon="100.913265" lat="12.742231">
                <ele>74.158813</ele>
                <time>2004-11-27T07:21:36Z</time>
            </trkpt>
            <trkpt lon="100.912943" lat="12.742875">
                <ele>71.274902</ele>
                <time>2004-11-27T07:21:48Z</time>
            </trkpt>
            <trkpt lon="100.912879" lat="12.742875">
                <ele>69.832886</ele>
                <time>2004-11-27T07:21:53Z</time>
            </trkpt>
            <trkpt lon="100.912535" lat="12.742596">
                <ele>65.987671</ele>
                <time>2004-11-27T07:22:08Z</time>
            </trkpt>
            <trkpt lon="100.912471" lat="12.742167">
                <ele>64.545654</ele>
                <time>2004-11-27T07:22:21Z</time>
            </trkpt>
            <trkpt lon="100.912385" lat="12.742102">
                <ele>65.026367</ele>
                <time>2004-11-27T07:22:24Z</time>
            </trkpt>
            <trkpt lon="100.912192" lat="12.742059">
                <ele>64.545654</ele>
                <time>2004-11-27T07:22:29Z</time>
            </trkpt>
            <trkpt lon="100.911827" lat="12.741909">
                <ele>65.987671</ele>
                <time>2004-11-27T07:22:43Z</time>
            </trkpt>
            <trkpt lon="100.911827" lat="12.741845">
                <ele>64.545654</ele>
                <time>2004-11-27T07:22:59Z</time>
            </trkpt>
            <trkpt lon="100.911784" lat="12.741802">
                <ele>65.026367</ele>
                <time>2004-11-27T07:23:16Z</time>
            </trkpt>
            <trkpt lon="100.911763" lat="12.741759">
                <ele>67.429688</ele>
                <time>2004-11-27T07:23:58Z</time>
            </trkpt>
            <trkpt lon="100.911763" lat="12.741458">
                <ele>66.948975</ele>
                <time>2004-11-27T07:24:11Z</time>
            </trkpt>
            <trkpt lon="100.911784" lat="12.740815">
                <ele>66.948975</ele>
                <time>2004-11-27T07:24:29Z</time>
            </trkpt>
            <trkpt lon="100.911806" lat="12.740149">
                <ele>66.468262</ele>
                <time>2004-11-27T07:24:44Z</time>
            </trkpt>
            <trkpt lon="100.911570" lat="12.740214">
                <ele>62.622925</ele>
                <time>2004-11-27T07:24:51Z</time>
            </trkpt>
            <trkpt lon="100.911527" lat="12.740364">
                <ele>60.700317</ele>
                <time>2004-11-27T07:24:55Z</time>
            </trkpt>
            <trkpt lon="100.911376" lat="12.740643">
                <ele>56.374512</ele>
                <time>2004-11-27T07:25:04Z</time>
            </trkpt>
            <trkpt lon="100.911076" lat="12.741051">
                <ele>51.567871</ele>
                <time>2004-11-27T07:25:17Z</time>
            </trkpt>
            <trkpt lon="100.910947" lat="12.741244">
                <ele>50.606567</ele>
                <time>2004-11-27T07:25:24Z</time>
            </trkpt>
            <trkpt lon="100.910797" lat="12.741222">
                <ele>51.087158</ele>
                <time>2004-11-27T07:25:29Z</time>
            </trkpt>
            <trkpt lon="100.910583" lat="12.741094">
                <ele>49.645264</ele>
                <time>2004-11-27T07:25:35Z</time>
            </trkpt>
            <trkpt lon="100.910132" lat="12.740729">
                <ele>49.164551</ele>
                <time>2004-11-27T07:25:49Z</time>
            </trkpt>
            <trkpt lon="100.909874" lat="12.740579">
                <ele>49.164551</ele>
                <time>2004-11-27T07:25:55Z</time>
            </trkpt>
            <trkpt lon="100.909724" lat="12.740428">
                <ele>48.683960</ele>
                <time>2004-11-27T07:25:59Z</time>
            </trkpt>
            <trkpt lon="100.909553" lat="12.740321">
                <ele>48.203369</ele>
                <time>2004-11-27T07:26:03Z</time>
            </trkpt>
            <trkpt lon="100.909402" lat="12.740278">
                <ele>47.722534</ele>
                <time>2004-11-27T07:26:06Z</time>
            </trkpt>
            <trkpt lon="100.909317" lat="12.740214">
                <ele>47.241821</ele>
                <time>2004-11-27T07:26:08Z</time>
            </trkpt>
            <trkpt lon="100.908973" lat="12.739913">
                <ele>47.722534</ele>
                <time>2004-11-27T07:26:17Z</time>
            </trkpt>
            <trkpt lon="100.908437" lat="12.739635">
                <ele>47.241821</ele>
                <time>2004-11-27T07:26:28Z</time>
            </trkpt>
            <trkpt lon="100.908265" lat="12.739527">
                <ele>45.799927</ele>
                <time>2004-11-27T07:26:32Z</time>
            </trkpt>
            <trkpt lon="100.908222" lat="12.739334">
                <ele>45.799927</ele>
                <time>2004-11-27T07:26:37Z</time>
            </trkpt>
            <trkpt lon="100.908480" lat="12.738605">
                <ele>46.761230</ele>
                <time>2004-11-27T07:26:56Z</time>
            </trkpt>
            <trkpt lon="100.908651" lat="12.738090">
                <ele>48.683960</ele>
                <time>2004-11-27T07:27:12Z</time>
            </trkpt>
            <trkpt lon="100.908844" lat="12.737617">
                <ele>51.567871</ele>
                <time>2004-11-27T07:27:30Z</time>
            </trkpt>
            <trkpt lon="100.909102" lat="12.737253">
                <ele>54.932373</ele>
                <time>2004-11-27T07:27:47Z</time>
            </trkpt>
            <trkpt lon="100.909488" lat="12.736738">
                <ele>57.335815</ele>
                <time>2004-11-27T07:28:07Z</time>
            </trkpt>
            <trkpt lon="100.909874" lat="12.736266">
                <ele>58.297119</ele>
                <time>2004-11-27T07:28:26Z</time>
            </trkpt>
            <trkpt lon="100.910304" lat="12.735729">
                <ele>60.219727</ele>
                <time>2004-11-27T07:28:45Z</time>
            </trkpt>
            <trkpt lon="100.910668" lat="12.735364">
                <ele>60.700317</ele>
                <time>2004-11-27T07:29:00Z</time>
            </trkpt>
            <trkpt lon="100.911033" lat="12.735043">
                <ele>59.258423</ele>
                <time>2004-11-27T07:29:18Z</time>
            </trkpt>
            <trkpt lon="100.911055" lat="12.735021">
                <ele>59.258423</ele>
                <time>2004-11-27T07:29:20Z</time>
            </trkpt>
            <trkpt lon="100.911076" lat="12.735171">
                <ele>62.142334</ele>
                <time>2004-11-27T07:29:30Z</time>
            </trkpt>
            <trkpt lon="100.911033" lat="12.735257">
                <ele>62.142334</ele>
                <time>2004-11-27T07:29:44Z</time>
            </trkpt>
            <trkpt lon="100.911033" lat="12.735257">
                <ele>64.065063</ele>
                <time>2004-11-27T07:30:04Z</time>
            </trkpt>
            <trkpt lon="100.911012" lat="12.735279">
                <ele>65.026367</ele>
                <time>2004-11-27T07:30:58Z</time>
            </trkpt>
            <trkpt lon="100.910969" lat="12.735515">
                <ele>66.468262</ele>
                <time>2004-11-27T07:31:11Z</time>
            </trkpt>
            <trkpt lon="100.911119" lat="12.735794">
                <ele>67.910278</ele>
                <time>2004-11-27T07:31:27Z</time>
            </trkpt>
            <trkpt lon="100.911376" lat="12.735858">
                <ele>67.429688</ele>
                <time>2004-11-27T07:31:40Z</time>
            </trkpt>
            <trkpt lon="100.911484" lat="12.736008">
                <ele>66.468262</ele>
                <time>2004-11-27T07:31:53Z</time>
            </trkpt>
            <trkpt lon="100.911806" lat="12.736030">
                <ele>65.507080</ele>
                <time>2004-11-27T07:32:09Z</time>
            </trkpt>
            <trkpt lon="100.912299" lat="12.736073">
                <ele>70.794189</ele>
                <time>2004-11-27T07:32:30Z</time>
            </trkpt>
            <trkpt lon="100.912750" lat="12.736115">
                <ele>73.197632</ele>
                <time>2004-11-27T07:32:48Z</time>
            </trkpt>
            <trkpt lon="100.913222" lat="12.736115">
                <ele>74.158813</ele>
                <time>2004-11-27T07:33:04Z</time>
            </trkpt>
            <trkpt lon="100.913265" lat="12.735922">
                <ele>73.197632</ele>
                <time>2004-11-27T07:33:15Z</time>
            </trkpt>
            <trkpt lon="100.913243" lat="12.735815">
                <ele>72.236206</ele>
                <time>2004-11-27T07:33:24Z</time>
            </trkpt>
            <trkpt lon="100.913265" lat="12.735751">
                <ele>71.755493</ele>
                <time>2004-11-27T07:33:26Z</time>
            </trkpt>
            <trkpt lon="100.913372" lat="12.735536">
                <ele>70.313477</ele>
                <time>2004-11-27T07:33:31Z</time>
            </trkpt>
            <trkpt lon="100.913436" lat="12.735364">
                <ele>68.871582</ele>
                <time>2004-11-27T07:33:35Z</time>
            </trkpt>
            <trkpt lon="100.913501" lat="12.735214">
                <ele>68.390869</ele>
                <time>2004-11-27T07:33:39Z</time>
            </trkpt>
            <trkpt lon="100.913630" lat="12.734807">
                <ele>65.987671</ele>
                <time>2004-11-27T07:33:52Z</time>
            </trkpt>
            <trkpt lon="100.913651" lat="12.734764">
                <ele>65.987671</ele>
                <time>2004-11-27T07:33:59Z</time>
            </trkpt>
            <trkpt lon="100.913715" lat="12.734442">
                <ele>64.545654</ele>
                <time>2004-11-27T07:34:12Z</time>
            </trkpt>
            <trkpt lon="100.913715" lat="12.734249">
                <ele>61.181030</ele>
                <time>2004-11-27T07:34:20Z</time>
            </trkpt>
            <trkpt lon="100.913737" lat="12.734206">
                <ele>61.181030</ele>
                <time>2004-11-27T07:34:21Z</time>
            </trkpt>
            <trkpt lon="100.913715" lat="12.734120">
                <ele>60.700317</ele>
                <time>2004-11-27T07:34:23Z</time>
            </trkpt>
            <trkpt lon="100.913758" lat="12.733326">
                <ele>57.816528</ele>
                <time>2004-11-27T07:34:42Z</time>
            </trkpt>
            <trkpt lon="100.913737" lat="12.732704">
                <ele>55.893799</ele>
                <time>2004-11-27T07:34:55Z</time>
            </trkpt>
            <trkpt lon="100.913715" lat="12.732210">
                <ele>53.971191</ele>
                <time>2004-11-27T07:35:04Z</time>
            </trkpt>
            <trkpt lon="100.913715" lat="12.731867">
                <ele>52.529175</ele>
                <time>2004-11-27T07:35:15Z</time>
            </trkpt>
            <trkpt lon="100.913737" lat="12.731845">
                <ele>52.529175</ele>
                <time>2004-11-27T07:35:16Z</time>
            </trkpt>
            <trkpt lon="100.913844" lat="12.731867">
                <ele>52.529175</ele>
                <time>2004-11-27T07:35:20Z</time>
            </trkpt>
            <trkpt lon="100.914445" lat="12.731974">
                <ele>51.567871</ele>
                <time>2004-11-27T07:35:35Z</time>
            </trkpt>
            <trkpt lon="100.915346" lat="12.732103">
                <ele>51.087158</ele>
                <time>2004-11-27T07:35:54Z</time>
            </trkpt>
            <trkpt lon="100.916784" lat="12.732317">
                <ele>49.645264</ele>
                <time>2004-11-27T07:36:17Z</time>
            </trkpt>
            <trkpt lon="100.918136" lat="12.732532">
                <ele>50.125977</ele>
                <time>2004-11-27T07:36:40Z</time>
            </trkpt>
            <trkpt lon="100.919487" lat="12.732747">
                <ele>50.606567</ele>
                <time>2004-11-27T07:37:06Z</time>
            </trkpt>
            <trkpt lon="100.920625" lat="12.732875">
                <ele>51.567871</ele>
                <time>2004-11-27T07:37:29Z</time>
            </trkpt>
            <trkpt lon="100.920990" lat="12.732875">
                <ele>51.087158</ele>
                <time>2004-11-27T07:37:36Z</time>
            </trkpt>
            <trkpt lon="100.922170" lat="12.732832">
                <ele>48.683960</ele>
                <time>2004-11-27T07:37:58Z</time>
            </trkpt>
            <trkpt lon="100.923243" lat="12.732790">
                <ele>50.125977</ele>
                <time>2004-11-27T07:38:19Z</time>
            </trkpt>
            <trkpt lon="100.924294" lat="12.732747">
                <ele>47.722534</ele>
                <time>2004-11-27T07:38:43Z</time>
            </trkpt>
            <trkpt lon="100.925024" lat="12.732747">
                <ele>53.009766</ele>
                <time>2004-11-27T07:39:02Z</time>
            </trkpt>
            <trkpt lon="100.925066" lat="12.733004">
                <ele>52.048584</ele>
                <time>2004-11-27T07:39:09Z</time>
            </trkpt>
            <trkpt lon="100.924981" lat="12.733176">
                <ele>52.048584</ele>
                <time>2004-11-27T07:39:13Z</time>
            </trkpt>
            <trkpt lon="100.924873" lat="12.733541">
                <ele>51.087158</ele>
                <time>2004-11-27T07:39:21Z</time>
            </trkpt>
            <trkpt lon="100.924830" lat="12.733669">
                <ele>51.087158</ele>
                <time>2004-11-27T07:39:24Z</time>
            </trkpt>
            <trkpt lon="100.924444" lat="12.733905">
                <ele>46.761230</ele>
                <time>2004-11-27T07:39:37Z</time>
            </trkpt>
            <trkpt lon="100.924315" lat="12.734313">
                <ele>48.683960</ele>
                <time>2004-11-27T07:39:50Z</time>
            </trkpt>
            <trkpt lon="100.924144" lat="12.734892">
                <ele>52.048584</ele>
                <time>2004-11-27T07:40:08Z</time>
            </trkpt>
            <trkpt lon="100.923843" lat="12.735364">
                <ele>53.490479</ele>
                <time>2004-11-27T07:40:28Z</time>
            </trkpt>
            <trkpt lon="100.923758" lat="12.735472">
                <ele>52.529175</ele>
                <time>2004-11-27T07:40:33Z</time>
            </trkpt>
            <trkpt lon="100.923843" lat="12.735965">
                <ele>53.490479</ele>
                <time>2004-11-27T07:40:53Z</time>
            </trkpt>
            <trkpt lon="100.923865" lat="12.736030">
                <ele>53.971191</ele>
                <time>2004-11-27T07:40:57Z</time>
            </trkpt>
            <trkpt lon="100.923822" lat="12.736309">
                <ele>58.297119</ele>
                <time>2004-11-27T07:41:14Z</time>
            </trkpt>
            <trkpt lon="100.923607" lat="12.736738">
                <ele>62.622925</ele>
                <time>2004-11-27T07:41:35Z</time>
            </trkpt>
            <trkpt lon="100.923436" lat="12.737103">
                <ele>65.026367</ele>
                <time>2004-11-27T07:41:54Z</time>
            </trkpt>
            <trkpt lon="100.923328" lat="12.737424">
                <ele>66.948975</ele>
                <time>2004-11-27T07:42:09Z</time>
            </trkpt>
            <trkpt lon="100.923543" lat="12.737596">
                <ele>68.871582</ele>
                <time>2004-11-27T07:42:22Z</time>
            </trkpt>
            <trkpt lon="100.923800" lat="12.737854">
                <ele>69.352295</ele>
                <time>2004-11-27T07:42:39Z</time>
            </trkpt>
            <trkpt lon="100.923779" lat="12.738283">
                <ele>72.716919</ele>
                <time>2004-11-27T07:42:58Z</time>
            </trkpt>
            <trkpt lon="100.923951" lat="12.738583">
                <ele>75.600830</ele>
                <time>2004-11-27T07:43:14Z</time>
            </trkpt>
            <trkpt lon="100.924294" lat="12.738798">
                <ele>76.081421</ele>
                <time>2004-11-27T07:43:29Z</time>
            </trkpt>
            <trkpt lon="100.924680" lat="12.739184">
                <ele>75.120239</ele>
                <time>2004-11-27T07:43:45Z</time>
            </trkpt>
            <trkpt lon="100.924981" lat="12.739699">
                <ele>74.158813</ele>
                <time>2004-11-27T07:44:00Z</time>
            </trkpt>
            <trkpt lon="100.925217" lat="12.740085">
                <ele>72.716919</ele>
                <time>2004-11-27T07:44:13Z</time>
            </trkpt>
            <trkpt lon="100.925431" lat="12.740042">
                <ele>71.755493</ele>
                <time>2004-11-27T07:44:18Z</time>
            </trkpt>
            <trkpt lon="100.925817" lat="12.739892">
                <ele>71.274902</ele>
                <time>2004-11-27T07:44:28Z</time>
            </trkpt>
            <trkpt lon="100.925925" lat="12.740171">
                <ele>69.832886</ele>
                <time>2004-11-27T07:44:40Z</time>
            </trkpt>
            <trkpt lon="100.926075" lat="12.740729">
                <ele>69.832886</ele>
                <time>2004-11-27T07:44:55Z</time>
            </trkpt>
            <trkpt lon="100.926182" lat="12.741222">
                <ele>71.755493</ele>
                <time>2004-11-27T07:45:13Z</time>
            </trkpt>
            <trkpt lon="100.926096" lat="12.741501">
                <ele>70.794189</ele>
                <time>2004-11-27T07:45:24Z</time>
            </trkpt>
            <trkpt lon="100.926075" lat="12.741609">
                <ele>71.755493</ele>
                <time>2004-11-27T07:45:30Z</time>
            </trkpt>
            <trkpt lon="100.926096" lat="12.741802">
                <ele>70.313477</ele>
                <time>2004-11-27T07:45:52Z</time>
            </trkpt>
            <trkpt lon="100.926161" lat="12.741973">
                <ele>73.197632</ele>
                <time>2004-11-27T07:46:08Z</time>
            </trkpt>
            <trkpt lon="100.926225" lat="12.742231">
                <ele>73.678223</ele>
                <time>2004-11-27T07:46:23Z</time>
            </trkpt>
            <trkpt lon="100.926247" lat="12.742274">
                <ele>74.158813</ele>
                <time>2004-11-27T07:46:25Z</time>
            </trkpt>
            <trkpt lon="100.926268" lat="12.742338">
                <ele>74.639526</ele>
                <time>2004-11-27T07:46:29Z</time>
            </trkpt>
            <trkpt lon="100.926332" lat="12.742682">
                <ele>76.081421</ele>
                <time>2004-11-27T07:46:47Z</time>
            </trkpt>
            <trkpt lon="100.926440" lat="12.743175">
                <ele>75.600830</ele>
                <time>2004-11-27T07:47:04Z</time>
            </trkpt>
            <trkpt lon="100.926526" lat="12.743561">
                <ele>74.158813</ele>
                <time>2004-11-27T07:47:19Z</time>
            </trkpt>
            <trkpt lon="100.926440" lat="12.743669">
                <ele>73.678223</ele>
                <time>2004-11-27T07:47:32Z</time>
            </trkpt>
            <trkpt lon="100.926354" lat="12.743733">
                <ele>76.081421</ele>
                <time>2004-11-27T07:47:48Z</time>
            </trkpt>
            <trkpt lon="100.926354" lat="12.743733">
                <ele>74.158813</ele>
                <time>2004-11-27T07:48:35Z</time>
            </trkpt>
            <trkpt lon="100.926526" lat="12.743948">
                <ele>72.716919</ele>
                <time>2004-11-27T07:48:48Z</time>
            </trkpt>
            <trkpt lon="100.926719" lat="12.744269">
                <ele>70.313477</ele>
                <time>2004-11-27T07:49:01Z</time>
            </trkpt>
            <trkpt lon="100.926805" lat="12.744634">
                <ele>66.948975</ele>
                <time>2004-11-27T07:49:13Z</time>
            </trkpt>
            <trkpt lon="100.926633" lat="12.744913">
                <ele>65.026367</ele>
                <time>2004-11-27T07:49:24Z</time>
            </trkpt>
            <trkpt lon="100.926290" lat="12.745171">
                <ele>59.739136</ele>
                <time>2004-11-27T07:49:38Z</time>
            </trkpt>
            <trkpt lon="100.926311" lat="12.745256">
                <ele>57.816528</ele>
                <time>2004-11-27T07:49:42Z</time>
            </trkpt>
            <trkpt lon="100.926290" lat="12.745578">
                <ele>56.374512</ele>
                <time>2004-11-27T07:49:54Z</time>
            </trkpt>
            <trkpt lon="100.926311" lat="12.745814">
                <ele>54.451782</ele>
                <time>2004-11-27T07:50:03Z</time>
            </trkpt>
            <trkpt lon="100.926397" lat="12.746115">
                <ele>53.009766</ele>
                <time>2004-11-27T07:50:15Z</time>
            </trkpt>
            <trkpt lon="100.926397" lat="12.746394">
                <ele>50.125977</ele>
                <time>2004-11-27T07:50:27Z</time>
            </trkpt>
            <trkpt lon="100.926139" lat="12.746480">
                <ele>46.280640</ele>
                <time>2004-11-27T07:50:38Z</time>
            </trkpt>
            <trkpt lon="100.925882" lat="12.746651">
                <ele>48.683960</ele>
                <time>2004-11-27T07:50:52Z</time>
            </trkpt>
            <trkpt lon="100.925732" lat="12.746737">
                <ele>51.567871</ele>
                <time>2004-11-27T07:51:07Z</time>
            </trkpt>
            <trkpt lon="100.925496" lat="12.746673">
                <ele>53.971191</ele>
                <time>2004-11-27T07:51:22Z</time>
            </trkpt>
            <trkpt lon="100.925109" lat="12.746480">
                <ele>56.374512</ele>
                <time>2004-11-27T07:51:44Z</time>
            </trkpt>
            <trkpt lon="100.924766" lat="12.746308">
                <ele>59.258423</ele>
                <time>2004-11-27T07:52:03Z</time>
            </trkpt>
            <trkpt lon="100.924466" lat="12.746158">
                <ele>61.181030</ele>
                <time>2004-11-27T07:52:21Z</time>
            </trkpt>
            <trkpt lon="100.924122" lat="12.746007">
                <ele>64.065063</ele>
                <time>2004-11-27T07:52:41Z</time>
            </trkpt>
            <trkpt lon="100.923758" lat="12.745814">
                <ele>66.468262</ele>
                <time>2004-11-27T07:53:03Z</time>
            </trkpt>
            <trkpt lon="100.923457" lat="12.745643">
                <ele>68.390869</ele>
                <time>2004-11-27T07:53:21Z</time>
            </trkpt>
            <trkpt lon="100.923221" lat="12.745557">
                <ele>70.313477</ele>
                <time>2004-11-27T07:53:36Z</time>
            </trkpt>
            <trkpt lon="100.922921" lat="12.745621">
                <ele>72.236206</ele>
                <time>2004-11-27T07:53:54Z</time>
            </trkpt>
            <trkpt lon="100.922706" lat="12.745836">
                <ele>73.678223</ele>
                <time>2004-11-27T07:54:08Z</time>
            </trkpt>
            <trkpt lon="100.922685" lat="12.746136">
                <ele>74.639526</ele>
                <time>2004-11-27T07:54:22Z</time>
            </trkpt>
            <trkpt lon="100.922856" lat="12.746651">
                <ele>73.678223</ele>
                <time>2004-11-27T07:54:38Z</time>
            </trkpt>
            <trkpt lon="100.922770" lat="12.747102">
                <ele>74.639526</ele>
                <time>2004-11-27T07:54:52Z</time>
            </trkpt>
            <trkpt lon="100.922706" lat="12.747509">
                <ele>75.600830</ele>
                <time>2004-11-27T07:55:05Z</time>
            </trkpt>
            <trkpt lon="100.922878" lat="12.747960">
                <ele>71.755493</ele>
                <time>2004-11-27T07:55:20Z</time>
            </trkpt>
            <trkpt lon="100.922770" lat="12.748282">
                <ele>71.755493</ele>
                <time>2004-11-27T07:55:30Z</time>
            </trkpt>
            <trkpt lon="100.922427" lat="12.748625">
                <ele>71.274902</ele>
                <time>2004-11-27T07:55:43Z</time>
            </trkpt>
            <trkpt lon="100.922406" lat="12.748668">
                <ele>71.274902</ele>
                <time>2004-11-27T07:55:44Z</time>
            </trkpt>
            <trkpt lon="100.922298" lat="12.748775">
                <ele>70.313477</ele>
                <time>2004-11-27T07:55:48Z</time>
            </trkpt>
            <trkpt lon="100.922041" lat="12.749076">
                <ele>69.832886</ele>
                <time>2004-11-27T07:56:01Z</time>
            </trkpt>
            <trkpt lon="100.921848" lat="12.749355">
                <ele>68.871582</ele>
                <time>2004-11-27T07:56:17Z</time>
            </trkpt>
            <trkpt lon="100.921633" lat="12.749677">
                <ele>67.910278</ele>
                <time>2004-11-27T07:56:30Z</time>
            </trkpt>
            <trkpt lon="100.921290" lat="12.750149">
                <ele>64.065063</ele>
                <time>2004-11-27T07:56:46Z</time>
            </trkpt>
            <trkpt lon="100.921268" lat="12.750213">
                <ele>63.584351</ele>
                <time>2004-11-27T07:56:48Z</time>
            </trkpt>
            <trkpt lon="100.921247" lat="12.750471">
                <ele>64.065063</ele>
                <time>2004-11-27T07:56:56Z</time>
            </trkpt>
            <trkpt lon="100.921247" lat="12.751200">
                <ele>60.700317</ele>
                <time>2004-11-27T07:57:13Z</time>
            </trkpt>
            <trkpt lon="100.921226" lat="12.751780">
                <ele>59.739136</ele>
                <time>2004-11-27T07:57:25Z</time>
            </trkpt>
            <trkpt lon="100.921161" lat="12.752316">
                <ele>57.816528</ele>
                <time>2004-11-27T07:57:41Z</time>
            </trkpt>
            <trkpt lon="100.921161" lat="12.752316">
                <ele>55.893799</ele>
                <time>2004-11-27T07:58:26Z</time>
            </trkpt>
            <trkpt lon="100.921161" lat="12.752337">
                <ele>55.893799</ele>
                <time>2004-11-27T07:58:59Z</time>
            </trkpt>
            <trkpt lon="100.921140" lat="12.752337">
                <ele>54.451782</ele>
                <time>2004-11-27T07:59:26Z</time>
            </trkpt>
            <trkpt lon="100.921075" lat="12.752337">
                <ele>53.971191</ele>
                <time>2004-11-27T07:59:31Z</time>
            </trkpt>
            <trkpt lon="100.920947" lat="12.752573">
                <ele>52.529175</ele>
                <time>2004-11-27T07:59:42Z</time>
            </trkpt>
            <trkpt lon="100.920990" lat="12.753024">
                <ele>51.087158</ele>
                <time>2004-11-27T07:59:54Z</time>
            </trkpt>
            <trkpt lon="100.921333" lat="12.753260">
                <ele>49.164551</ele>
                <time>2004-11-27T08:00:05Z</time>
            </trkpt>
            <trkpt lon="100.921762" lat="12.753603">
                <ele>48.683960</ele>
                <time>2004-11-27T08:00:19Z</time>
            </trkpt>
            <trkpt lon="100.922213" lat="12.753711">
                <ele>48.203369</ele>
                <time>2004-11-27T08:00:32Z</time>
            </trkpt>
            <trkpt lon="100.922749" lat="12.753861">
                <ele>47.722534</ele>
                <time>2004-11-27T08:00:47Z</time>
            </trkpt>
            <trkpt lon="100.923049" lat="12.754290">
                <ele>45.799927</ele>
                <time>2004-11-27T08:01:01Z</time>
            </trkpt>
            <trkpt lon="100.923221" lat="12.754633">
                <ele>44.358032</ele>
                <time>2004-11-27T08:01:16Z</time>
            </trkpt>
            <trkpt lon="100.923328" lat="12.754784">
                <ele>43.396606</ele>
                <time>2004-11-27T08:01:28Z</time>
            </trkpt>
            <trkpt lon="100.923414" lat="12.754998">
                <ele>42.916016</ele>
                <time>2004-11-27T08:01:44Z</time>
            </trkpt>
            <trkpt lon="100.923607" lat="12.755384">
                <ele>41.473999</ele>
                <time>2004-11-27T08:01:58Z</time>
            </trkpt>
            <trkpt lon="100.923822" lat="12.755835">
                <ele>38.590088</ele>
                <time>2004-11-27T08:02:13Z</time>
            </trkpt>
            <trkpt lon="100.924015" lat="12.756243">
                <ele>37.628662</ele>
                <time>2004-11-27T08:02:28Z</time>
            </trkpt>
            <trkpt lon="100.924208" lat="12.756693">
                <ele>35.706055</ele>
                <time>2004-11-27T08:02:43Z</time>
            </trkpt>
            <trkpt lon="100.924208" lat="12.756758">
                <ele>36.186768</ele>
                <time>2004-11-27T08:02:52Z</time>
            </trkpt>
            <trkpt lon="100.924315" lat="12.756951">
                <ele>35.706055</ele>
                <time>2004-11-27T08:05:39Z</time>
            </trkpt>
            <trkpt lon="100.924337" lat="12.757015">
                <ele>35.706055</ele>
                <time>2004-11-27T08:05:44Z</time>
            </trkpt>
            <trkpt lon="100.924487" lat="12.757316">
                <ele>34.264160</ele>
                <time>2004-11-27T08:05:59Z</time>
            </trkpt>
            <trkpt lon="100.924637" lat="12.757766">
                <ele>32.822266</ele>
                <time>2004-11-27T08:06:12Z</time>
            </trkpt>
            <trkpt lon="100.924788" lat="12.758474">
                <ele>28.496216</ele>
                <time>2004-11-27T08:06:27Z</time>
            </trkpt>
            <trkpt lon="100.924916" lat="12.758882">
                <ele>26.092896</ele>
                <time>2004-11-27T08:06:38Z</time>
            </trkpt>
            <trkpt lon="100.925024" lat="12.759354">
                <ele>25.131714</ele>
                <time>2004-11-27T08:06:49Z</time>
            </trkpt>
            <trkpt lon="100.925174" lat="12.759697">
                <ele>24.170288</ele>
                <time>2004-11-27T08:07:02Z</time>
            </trkpt>
            <trkpt lon="100.925603" lat="12.759676">
                <ele>22.247559</ele>
                <time>2004-11-27T08:07:13Z</time>
            </trkpt>
            <trkpt lon="100.926118" lat="12.759676">
                <ele>23.689575</ele>
                <time>2004-11-27T08:07:28Z</time>
            </trkpt>
            <trkpt lon="100.926332" lat="12.759805">
                <ele>24.170288</ele>
                <time>2004-11-27T08:07:40Z</time>
            </trkpt>
            <trkpt lon="100.926397" lat="12.759848">
                <ele>24.170288</ele>
                <time>2004-11-27T08:07:53Z</time>
            </trkpt>
            <trkpt lon="100.926483" lat="12.759891">
                <ele>24.170288</ele>
                <time>2004-11-27T08:08:01Z</time>
            </trkpt>
            <trkpt lon="100.926783" lat="12.760041">
                <ele>24.170288</ele>
                <time>2004-11-27T08:08:16Z</time>
            </trkpt>
            <trkpt lon="100.926740" lat="12.760448">
                <ele>25.131714</ele>
                <time>2004-11-27T08:08:29Z</time>
            </trkpt>
            <trkpt lon="100.926547" lat="12.761242">
                <ele>25.612305</ele>
                <time>2004-11-27T08:08:46Z</time>
            </trkpt>
            <trkpt lon="100.926397" lat="12.762036">
                <ele>26.573608</ele>
                <time>2004-11-27T08:09:04Z</time>
            </trkpt>
            <trkpt lon="100.926375" lat="12.762294">
                <ele>26.573608</ele>
                <time>2004-11-27T08:09:11Z</time>
            </trkpt>
            <trkpt lon="100.926182" lat="12.763216">
                <ele>26.573608</ele>
                <time>2004-11-27T08:09:32Z</time>
            </trkpt>
            <trkpt lon="100.926075" lat="12.763925">
                <ele>25.612305</ele>
                <time>2004-11-27T08:09:47Z</time>
            </trkpt>
            <trkpt lon="100.926011" lat="12.764204">
                <ele>26.092896</ele>
                <time>2004-11-27T08:09:53Z</time>
            </trkpt>
            <trkpt lon="100.925860" lat="12.765083">
                <ele>24.651001</ele>
                <time>2004-11-27T08:10:11Z</time>
            </trkpt>
            <trkpt lon="100.925732" lat="12.765791">
                <ele>26.092896</ele>
                <time>2004-11-27T08:10:28Z</time>
            </trkpt>
            <trkpt lon="100.925581" lat="12.765942">
                <ele>23.208984</ele>
                <time>2004-11-27T08:10:39Z</time>
            </trkpt>
            <trkpt lon="100.925560" lat="12.765942">
                <ele>23.208984</ele>
                <time>2004-11-27T08:10:56Z</time>
            </trkpt>
            <trkpt lon="100.925517" lat="12.765942">
                <ele>15.999023</ele>
                <time>2004-11-27T08:38:25Z</time>
            </trkpt>
            <trkpt lon="100.925431" lat="12.765963">
                <ele>16.479736</ele>
                <time>2004-11-27T08:38:30Z</time>
            </trkpt>
            <trkpt lon="100.924895" lat="12.766285">
                <ele>18.402344</ele>
                <time>2004-11-27T08:38:48Z</time>
            </trkpt>
            <trkpt lon="100.924444" lat="12.766500">
                <ele>18.402344</ele>
                <time>2004-11-27T08:39:04Z</time>
            </trkpt>
            <trkpt lon="100.924037" lat="12.766585">
                <ele>15.999023</ele>
                <time>2004-11-27T08:39:15Z</time>
            </trkpt>
            <trkpt lon="100.923114" lat="12.766929">
                <ele>18.402344</ele>
                <time>2004-11-27T08:39:35Z</time>
            </trkpt>
            <trkpt lon="100.922577" lat="12.766950">
                <ele>20.324951</ele>
                <time>2004-11-27T08:39:50Z</time>
            </trkpt>
            <trkpt lon="100.921891" lat="12.766564">
                <ele>17.921753</ele>
                <time>2004-11-27T08:40:10Z</time>
            </trkpt>
            <trkpt lon="100.921612" lat="12.766435">
                <ele>18.883057</ele>
                <time>2004-11-27T08:40:18Z</time>
            </trkpt>
            <trkpt lon="100.921011" lat="12.765963">
                <ele>18.402344</ele>
                <time>2004-11-27T08:40:35Z</time>
            </trkpt>
            <trkpt lon="100.920732" lat="12.765791">
                <ele>18.402344</ele>
                <time>2004-11-27T08:40:42Z</time>
            </trkpt>
            <trkpt lon="100.920475" lat="12.765684">
                <ele>18.883057</ele>
                <time>2004-11-27T08:40:48Z</time>
            </trkpt>
            <trkpt lon="100.919917" lat="12.765234">
                <ele>20.324951</ele>
                <time>2004-11-27T08:41:05Z</time>
            </trkpt>
            <trkpt lon="100.919402" lat="12.765126">
                <ele>22.247559</ele>
                <time>2004-11-27T08:41:19Z</time>
            </trkpt>
            <trkpt lon="100.918994" lat="12.765384">
                <ele>24.170288</ele>
                <time>2004-11-27T08:41:31Z</time>
            </trkpt>
            <trkpt lon="100.918586" lat="12.765384">
                <ele>24.170288</ele>
                <time>2004-11-27T08:41:44Z</time>
            </trkpt>
            <trkpt lon="100.917943" lat="12.765234">
                <ele>26.573608</ele>
                <time>2004-11-27T08:42:02Z</time>
            </trkpt>
            <trkpt lon="100.917900" lat="12.765298">
                <ele>26.092896</ele>
                <time>2004-11-27T08:42:06Z</time>
            </trkpt>
            <trkpt lon="100.918028" lat="12.765684">
                <ele>23.689575</ele>
                <time>2004-11-27T08:42:18Z</time>
            </trkpt>
            <trkpt lon="100.917792" lat="12.766242">
                <ele>24.651001</ele>
                <time>2004-11-27T08:42:36Z</time>
            </trkpt>
            <trkpt lon="100.917428" lat="12.766521">
                <ele>28.015503</ele>
                <time>2004-11-27T08:42:52Z</time>
            </trkpt>
            <trkpt lon="100.916913" lat="12.766478">
                <ele>29.457520</ele>
                <time>2004-11-27T08:43:07Z</time>
            </trkpt>
            <trkpt lon="100.916483" lat="12.766542">
                <ele>29.938110</ele>
                <time>2004-11-27T08:43:19Z</time>
            </trkpt>
            <trkpt lon="100.916140" lat="12.766542">
                <ele>29.457520</ele>
                <time>2004-11-27T08:43:26Z</time>
            </trkpt>
            <trkpt lon="100.915840" lat="12.766457">
                <ele>28.015503</ele>
                <time>2004-11-27T08:43:33Z</time>
            </trkpt>
            <trkpt lon="100.915539" lat="12.766521">
                <ele>29.457520</ele>
                <time>2004-11-27T08:43:39Z</time>
            </trkpt>
            <trkpt lon="100.915174" lat="12.766778">
                <ele>29.457520</ele>
                <time>2004-11-27T08:43:48Z</time>
            </trkpt>
            <trkpt lon="100.914617" lat="12.766800">
                <ele>27.534912</ele>
                <time>2004-11-27T08:43:58Z</time>
            </trkpt>
            <trkpt lon="100.914381" lat="12.766993">
                <ele>28.496216</ele>
                <time>2004-11-27T08:44:04Z</time>
            </trkpt>
            <trkpt lon="100.914123" lat="12.767851">
                <ele>28.976929</ele>
                <time>2004-11-27T08:44:24Z</time>
            </trkpt>
            <trkpt lon="100.913908" lat="12.768559">
                <ele>30.418823</ele>
                <time>2004-11-27T08:44:43Z</time>
            </trkpt>
            <trkpt lon="100.913737" lat="12.769225">
                <ele>31.860718</ele>
                <time>2004-11-27T08:45:03Z</time>
            </trkpt>
            <trkpt lon="100.913522" lat="12.769697">
                <ele>34.264160</ele>
                <time>2004-11-27T08:45:20Z</time>
            </trkpt>
            <trkpt lon="100.913458" lat="12.769825">
                <ele>35.706055</ele>
                <time>2004-11-27T08:45:32Z</time>
            </trkpt>
            <trkpt lon="100.913479" lat="12.769804">
                <ele>35.706055</ele>
                <time>2004-11-27T08:45:42Z</time>
            </trkpt>
            <trkpt lon="100.913329" lat="12.769740">
                <ele>34.744873</ele>
                <time>2004-11-27T08:45:52Z</time>
            </trkpt>
            <trkpt lon="100.913115" lat="12.769804">
                <ele>33.783447</ele>
                <time>2004-11-27T08:46:05Z</time>
            </trkpt>
            <trkpt lon="100.912793" lat="12.769890">
                <ele>32.341553</ele>
                <time>2004-11-27T08:46:18Z</time>
            </trkpt>
            <trkpt lon="100.912600" lat="12.769847">
                <ele>31.860718</ele>
                <time>2004-11-27T08:46:31Z</time>
            </trkpt>
            <trkpt lon="100.912600" lat="12.769825">
                <ele>30.418823</ele>
                <time>2004-11-27T08:47:23Z</time>
            </trkpt>
            <trkpt lon="100.912535" lat="12.769675">
                <ele>29.938110</ele>
                <time>2004-11-27T08:47:29Z</time>
            </trkpt>
            <trkpt lon="100.912406" lat="12.769246">
                <ele>28.496216</ele>
                <time>2004-11-27T08:47:44Z</time>
            </trkpt>
            <trkpt lon="100.912342" lat="12.769053">
                <ele>28.976929</ele>
                <time>2004-11-27T08:47:55Z</time>
            </trkpt>
            <trkpt lon="100.912192" lat="12.768602">
                <ele>26.092896</ele>
                <time>2004-11-27T08:48:08Z</time>
            </trkpt>
            <trkpt lon="100.912020" lat="12.768409">
                <ele>26.573608</ele>
                <time>2004-11-27T08:48:22Z</time>
            </trkpt>
            <trkpt lon="100.911806" lat="12.768431">
                <ele>27.534912</ele>
                <time>2004-11-27T08:48:37Z</time>
            </trkpt>
            <trkpt lon="100.911398" lat="12.768602">
                <ele>25.612305</ele>
                <time>2004-11-27T08:48:53Z</time>
            </trkpt>
            <trkpt lon="100.910883" lat="12.768710">
                <ele>26.092896</ele>
                <time>2004-11-27T08:49:10Z</time>
            </trkpt>
            <trkpt lon="100.910497" lat="12.768688">
                <ele>24.170288</ele>
                <time>2004-11-27T08:49:24Z</time>
            </trkpt>
            <trkpt lon="100.910304" lat="12.768710">
                <ele>22.728271</ele>
                <time>2004-11-27T08:49:31Z</time>
            </trkpt>
            <trkpt lon="100.909874" lat="12.768538">
                <ele>18.883057</ele>
                <time>2004-11-27T08:49:48Z</time>
            </trkpt>
            <trkpt lon="100.909595" lat="12.768645">
                <ele>16.960449</ele>
                <time>2004-11-27T08:50:02Z</time>
            </trkpt>
            <trkpt lon="100.909381" lat="12.768667">
                <ele>14.557007</ele>
                <time>2004-11-27T08:50:11Z</time>
            </trkpt>
            <trkpt lon="100.909209" lat="12.768881">
                <ele>13.595825</ele>
                <time>2004-11-27T08:50:21Z</time>
            </trkpt>
            <trkpt lon="100.909166" lat="12.768903">
                <ele>13.115112</ele>
                <time>2004-11-27T08:50:23Z</time>
            </trkpt>
            <trkpt lon="100.909102" lat="12.769032">
                <ele>13.115112</ele>
                <time>2004-11-27T08:50:29Z</time>
            </trkpt>
            <trkpt lon="100.908887" lat="12.769418">
                <ele>15.037720</ele>
                <time>2004-11-27T08:50:44Z</time>
            </trkpt>
            <trkpt lon="100.908630" lat="12.769740">
                <ele>15.518433</ele>
                <time>2004-11-27T08:50:58Z</time>
            </trkpt>
            <trkpt lon="100.908566" lat="12.769783">
                <ele>16.960449</ele>
                <time>2004-11-27T08:51:09Z</time>
            </trkpt>
            <trkpt lon="100.908566" lat="12.769804">
                <ele>20.805664</ele>
                <time>2004-11-27T08:51:18Z</time>
            </trkpt>
            <trkpt lon="100.908458" lat="12.769868">
                <ele>19.844360</ele>
                <time>2004-11-27T08:51:30Z</time>
            </trkpt>
            <trkpt lon="100.908415" lat="12.769890">
                <ele>19.844360</ele>
                <time>2004-11-27T08:51:43Z</time>
            </trkpt>
            <trkpt lon="100.908372" lat="12.769868">
                <ele>18.402344</ele>
                <time>2004-11-27T08:51:55Z</time>
            </trkpt>
            <trkpt lon="100.908329" lat="12.769783">
                <ele>17.441162</ele>
                <time>2004-11-27T08:51:59Z</time>
            </trkpt>
            <trkpt lon="100.908222" lat="12.769504">
                <ele>16.479736</ele>
                <time>2004-11-27T08:52:06Z</time>
            </trkpt>
            <trkpt lon="100.908051" lat="12.769310">
                <ele>15.999023</ele>
                <time>2004-11-27T08:52:11Z</time>
            </trkpt>
            <trkpt lon="100.907536" lat="12.768238">
                <ele>14.076416</ele>
                <time>2004-11-27T08:52:29Z</time>
            </trkpt>
            <trkpt lon="100.907278" lat="12.767701">
                <ele>12.634399</ele>
                <time>2004-11-27T08:52:40Z</time>
            </trkpt>
            <trkpt lon="100.906978" lat="12.767851">
                <ele>10.711792</ele>
                <time>2004-11-27T08:52:49Z</time>
            </trkpt>
            <trkpt lon="100.906098" lat="12.768366">
                <ele>9.269897</ele>
                <time>2004-11-27T08:53:06Z</time>
            </trkpt>
            <trkpt lon="100.905089" lat="12.769032">
                <ele>8.308594</ele>
                <time>2004-11-27T08:53:25Z</time>
            </trkpt>
            <trkpt lon="100.904725" lat="12.769225">
                <ele>5.424561</ele>
                <time>2004-11-27T08:53:32Z</time>
            </trkpt>
            <trkpt lon="100.903845" lat="12.769740">
                <ele>2.540649</ele>
                <time>2004-11-27T08:53:48Z</time>
            </trkpt>
            <trkpt lon="100.902879" lat="12.770147">
                <ele>2.060059</ele>
                <time>2004-11-27T08:54:05Z</time>
            </trkpt>
            <trkpt lon="100.901871" lat="12.770662">
                <ele>-0.824097</ele>
                <time>2004-11-27T08:54:22Z</time>
            </trkpt>
            <trkpt lon="100.901248" lat="12.771199">
                <ele>-0.343384</ele>
                <time>2004-11-27T08:54:36Z</time>
            </trkpt>
            <trkpt lon="100.901055" lat="12.771327">
                <ele>-0.824097</ele>
                <time>2004-11-27T08:54:40Z</time>
            </trkpt>
            <trkpt lon="100.900519" lat="12.771714">
                <ele>0.137451</ele>
                <time>2004-11-27T08:54:55Z</time>
            </trkpt>
            <trkpt lon="100.899961" lat="12.772164">
                <ele>0.137451</ele>
                <time>2004-11-27T08:55:12Z</time>
            </trkpt>
            <trkpt lon="100.899682" lat="12.772207">
                <ele>-3.707886</ele>
                <time>2004-11-27T08:55:24Z</time>
            </trkpt>
            <trkpt lon="100.899360" lat="12.771800">
                <ele>-6.591919</ele>
                <time>2004-11-27T08:55:36Z</time>
            </trkpt>
            <trkpt lon="100.898631" lat="12.770898">
                <ele>-6.111206</ele>
                <time>2004-11-27T08:55:57Z</time>
            </trkpt>
            <trkpt lon="100.897815" lat="12.769997">
                <ele>-7.553101</ele>
                <time>2004-11-27T08:56:18Z</time>
            </trkpt>
            <trkpt lon="100.896914" lat="12.768989">
                <ele>-8.995239</ele>
                <time>2004-11-27T08:56:41Z</time>
            </trkpt>
            <trkpt lon="100.895948" lat="12.768044">
                <ele>-6.591919</ele>
                <time>2004-11-27T08:57:04Z</time>
            </trkpt>
            <trkpt lon="100.895154" lat="12.767315">
                <ele>-6.591919</ele>
                <time>2004-11-27T08:57:23Z</time>
            </trkpt>
            <trkpt lon="100.894382" lat="12.766650">
                <ele>-4.669312</ele>
                <time>2004-11-27T08:57:41Z</time>
            </trkpt>
            <trkpt lon="100.893073" lat="12.765620">
                <ele>-4.669312</ele>
                <time>2004-11-27T08:58:11Z</time>
            </trkpt>
            <trkpt lon="100.893030" lat="12.765598">
                <ele>-4.669312</ele>
                <time>2004-11-27T08:58:12Z</time>
            </trkpt>
            <trkpt lon="100.892279" lat="12.764976">
                <ele>-6.111206</ele>
                <time>2004-11-27T08:58:30Z</time>
            </trkpt>
            <trkpt lon="100.891228" lat="12.764246">
                <ele>-3.707886</ele>
                <time>2004-11-27T08:58:54Z</time>
            </trkpt>
            <trkpt lon="100.891142" lat="12.764182">
                <ele>-3.707886</ele>
                <time>2004-11-27T08:58:56Z</time>
            </trkpt>
            <trkpt lon="100.891013" lat="12.763968">
                <ele>-3.707886</ele>
                <time>2004-11-27T08:59:02Z</time>
            </trkpt>
            <trkpt lon="100.890841" lat="12.763882">
                <ele>-3.707886</ele>
                <time>2004-11-27T08:59:06Z</time>
            </trkpt>
            <trkpt lon="100.890584" lat="12.763774">
                <ele>-4.188599</ele>
                <time>2004-11-27T08:59:12Z</time>
            </trkpt>
            <trkpt lon="100.890241" lat="12.763581">
                <ele>-5.630493</ele>
                <time>2004-11-27T08:59:19Z</time>
            </trkpt>
            <trkpt lon="100.889318" lat="12.763045">
                <ele>-7.072510</ele>
                <time>2004-11-27T08:59:40Z</time>
            </trkpt>
            <trkpt lon="100.888953" lat="12.762830">
                <ele>-6.591919</ele>
                <time>2004-11-27T08:59:48Z</time>
            </trkpt>
            <trkpt lon="100.888846" lat="12.762787">
                <ele>-6.591919</ele>
                <time>2004-11-27T08:59:50Z</time>
            </trkpt>
            <trkpt lon="100.888503" lat="12.762702">
                <ele>-7.072510</ele>
                <time>2004-11-27T08:59:56Z</time>
            </trkpt>
            <trkpt lon="100.887473" lat="12.762294">
                <ele>-2.265991</ele>
                <time>2004-11-27T09:00:16Z</time>
            </trkpt>
            <trkpt lon="100.886571" lat="12.761972">
                <ele>-3.227295</ele>
                <time>2004-11-27T09:00:34Z</time>
            </trkpt>
            <trkpt lon="100.886528" lat="12.761950">
                <ele>-2.265991</ele>
                <time>2004-11-27T09:00:35Z</time>
            </trkpt>
            <trkpt lon="100.885692" lat="12.761629">
                <ele>-1.785278</ele>
                <time>2004-11-27T09:00:53Z</time>
            </trkpt>
            <trkpt lon="100.885649" lat="12.761607">
                <ele>-2.265991</ele>
                <time>2004-11-27T09:00:54Z</time>
            </trkpt>
            <trkpt lon="100.885670" lat="12.761350">
                <ele>-4.188599</ele>
                <time>2004-11-27T09:01:04Z</time>
            </trkpt>
            <trkpt lon="100.885692" lat="12.761371">
                <ele>-2.265991</ele>
                <time>2004-11-27T09:03:35Z</time>
            </trkpt>
            <trkpt lon="100.885670" lat="12.761564">
                <ele>-6.111206</ele>
                <time>2004-11-27T09:03:50Z</time>
            </trkpt>
            <trkpt lon="100.885584" lat="12.761672">
                <ele>-6.591919</ele>
                <time>2004-11-27T09:04:05Z</time>
            </trkpt>
            <trkpt lon="100.885584" lat="12.761629">
                <ele>-6.591919</ele>
                <time>2004-11-27T09:05:31Z</time>
            </trkpt>
            <trkpt lon="100.885155" lat="12.761478">
                <ele>-4.188599</ele>
                <time>2004-11-27T09:05:45Z</time>
            </trkpt>
            <trkpt lon="100.885134" lat="12.761307">
                <ele>-6.591919</ele>
                <time>2004-11-27T09:05:51Z</time>
            </trkpt>
            <trkpt lon="100.885220" lat="12.760985">
                <ele>-7.072510</ele>
                <time>2004-11-27T09:06:06Z</time>
            </trkpt>
            <trkpt lon="100.884855" lat="12.760813">
                <ele>-7.072510</ele>
                <time>2004-11-27T09:06:16Z</time>
            </trkpt>
            <trkpt lon="100.883996" lat="12.760448">
                <ele>-5.630493</ele>
                <time>2004-11-27T09:06:35Z</time>
            </trkpt>
            <trkpt lon="100.883803" lat="12.760363">
                <ele>-4.188599</ele>
                <time>2004-11-27T09:06:40Z</time>
            </trkpt>
            <trkpt lon="100.883718" lat="12.760491">
                <ele>-2.265991</ele>
                <time>2004-11-27T09:06:46Z</time>
            </trkpt>
            <trkpt lon="100.883439" lat="12.760921">
                <ele>-1.304688</ele>
                <time>2004-11-27T09:07:02Z</time>
            </trkpt>
            <trkpt lon="100.883310" lat="12.761028">
                <ele>-1.304688</ele>
                <time>2004-11-27T09:07:14Z</time>
            </trkpt>
            <trkpt lon="100.883331" lat="12.761049">
                <ele>1.579346</ele>
                <time>2004-11-27T09:08:10Z</time>
            </trkpt>
            <trkpt lon="100.883374" lat="12.761071">
                <ele>2.540649</ele>
                <time>2004-11-27T10:41:44Z</time>
            </trkpt>
        </trkseg>
    </trk>
</gpx>